Time;durP1;ratioP1;P1;durP2;ratioP2;P2;SDS_P1;SDS_P2;PMS_P1;PMS_P2;Temp;Humidity;BMP_temperature;BMP_pressure;BME280_temperature;BME280_humidity;BME280_pressure;Samples;Min_cycle;Max_cycle;Signal;HPM_P1;HPM_P2
2022/09/26 00:01:22;;;;;;;5.85;5.15;;;;;;;11.17;100.00;100065.41;5014791;28;20040;-81
2022/09/26 00:03:52;;;;;;;7.63;4.82;;;;;;;11.15;100.00;100061.94;5042291;28;20048;-82
2022/09/26 00:06:20;;;;;;;5.53;4.90;;;;;;;11.09;100.00;100059.50;5014256;28;20303;-79
2022/09/26 00:08:48;;;;;;;7.15;4.57;;;;;;;11.13;100.00;100055.84;5047606;28;20048;-80
2022/09/26 00:11:21;;;;;;;5.70;4.93;;;;;;;11.06;100.00;100057.81;5022155;28;20033;-80
2022/09/26 00:13:53;;;;;;;5.70;4.60;;;;;;;10.96;100.00;100059.03;5020034;28;20040;-80
2022/09/26 00:16:20;;;;;;;5.53;4.57;;;;;;;10.91;100.00;100055.66;5015853;28;20107;-80
2022/09/26 00:18:51;;;;;;;6.20;4.93;;;;;;;10.94;100.00;100045.00;5030095;28;20075;-80
2022/09/26 00:21:19;;;;;;;7.13;4.93;;;;;;;10.89;100.00;100047.78;5030960;28;20045;-81
2022/09/26 00:23:45;;;;;;;6.50;4.72;;;;;;;10.74;100.00;100056.19;5000612;28;20502;-80
2022/09/26 00:26:13;;;;;;;5.22;4.28;;;;;;;10.65;100.00;100051.19;5021913;28;20098;-80
2022/09/26 00:28:40;;;;;;;5.20;3.95;;;;;;;10.58;100.00;100053.16;5035718;28;20063;-82
2022/09/26 00:31:09;;;;;;;6.90;4.85;;;;;;;10.56;100.00;100054.97;5034810;28;20056;-81
2022/09/26 00:33:36;;;;;;;5.10;4.47;;;;;;;10.48;100.00;100056.97;5035386;28;20037;-82
2022/09/26 00:36:04;;;;;;;7.78;4.78;;;;;;;10.53;100.00;100049.78;5000998;28;20506;-80
2022/09/26 00:38:30;;;;;;;6.00;3.80;;;;;;;10.40;100.00;100048.41;5023517;28;20045;-80
2022/09/26 00:40:57;;;;;;;8.13;4.60;;;;;;;10.31;100.00;100043.41;5017051;28;20048;-80
2022/09/26 00:43:28;;;;;;;7.32;4.75;;;;;;;10.26;100.00;100034.78;5017719;28;20076;-80
2022/09/26 00:45:59;;;;;;;6.03;4.28;;;;;;;10.20;100.00;100040.19;5040456;28;20417;-80
2022/09/26 00:48:26;;;;;;;5.03;4.53;;;;;;;10.20;100.00;100038.41;5020241;28;20055;-80
2022/09/26 00:50:53;;;;;;;5.68;4.60;;;;;;;10.04;100.00;100032.69;5033730;28;20044;-81
2022/09/26 00:53:25;;;;;;;6.25;3.72;;;;;;;10.11;100.00;100034.25;5041203;28;20098;-81
2022/09/26 00:55:55;;;;;;;6.90;3.45;;;;;;;10.00;100.00;100035.47;5033274;28;20071;-82
2022/09/26 00:58:32;;;;;;;5.75;4.35;;;;;;;9.85;100.00;100034.13;5052331;28;20052;-82
2022/09/26 01:00:59;;;;;;;5.18;3.80;;;;;;;9.74;100.00;100026.50;5017989;28;20041;-82
2022/09/26 01:03:28;;;;;;;6.45;4.10;;;;;;;9.72;100.00;100025.66;5035861;28;20096;-82
2022/09/26 01:05:55;;;;;;;5.97;4.15;;;;;;;9.70;100.00;100026.63;5027697;28;20095;-82
2022/09/26 01:08:27;;;;;;;5.47;3.85;;;;;;;9.58;100.00;100020.78;5022305;28;20044;-81
2022/09/26 01:10:54;;;;;;;5.38;4.32;;;;;;;9.50;100.00;100019.22;5017709;28;20045;-82
2022/09/26 01:13:21;;;;;;;6.40;4.45;;;;;;;9.46;100.00;100025.50;5035483;28;20051;-82
2022/09/26 01:15:48;;;;;;;5.13;4.03;;;;;;;9.38;100.00;100027.47;5017199;28;20110;-82
2022/09/26 01:18:14;;;;;;;6.18;3.85;;;;;;;9.33;100.00;100017.03;5004242;28;20497;-82
2022/09/26 01:20:56;;;;;;;6.13;4.13;;;;;;;9.26;100.00;100018.13;5033237;28;20045;-83
2022/09/26 01:23:45;;;;;;;4.07;3.65;;;;;;;9.35;100.00;100014.38;4983462;28;20544;-81
2022/09/26 01:26:24;;;;;;;7.07;3.78;;;;;;;9.23;100.00;100002.38;4998074;28;20041;-82
2022/09/26 01:29:01;;;;;;;4.65;3.42;;;;;;;9.18;100.00;100004.28;5027323;28;20036;-82
2022/09/26 01:31:34;;;;;;;6.25;4.32;;;;;;;9.14;100.00;99997.31;5033821;28;20044;-81
2022/09/26 01:34:11;;;;;;;6.43;4.20;;;;;;;9.06;100.00;100002.78;5018545;28;20049;-82
2022/09/26 01:37:00;;;;;;;6.07;4.30;;;;;;;8.97;100.00;99995.09;5017315;28;20240;-81
2022/09/26 01:39:50;;;;;;;4.53;3.47;;;;;;;8.97;100.00;99995.09;5018557;28;20080;-81
2022/09/26 01:42:26;;;;;;;9.18;5.00;;;;;;;8.86;100.00;99994.50;5017250;28;20056;-81
2022/09/26 01:45:04;;;;;;;9.82;4.38;;;;;;;8.83;100.00;99998.09;5034813;28;20044;-82
2022/09/26 01:48:17;;;;;;;6.22;4.35;;;;;;;8.69;100.00;99995.78;5016855;28;20041;-81
2022/09/26 01:50:46;;;;;;;5.67;3.33;;;;;;;8.65;100.00;99987.97;4974227;28;20063;-81
2022/09/26 01:53:25;;;;;;;5.28;3.92;;;;;;;8.71;100.00;99993.09;5017818;28;20432;-81
2022/09/26 01:56:01;;;;;;;5.47;4.20;;;;;;;8.66;100.00;99987.97;5019299;28;20110;-81
2022/09/26 01:58:32;;;;;;;6.93;4.10;;;;;;;8.61;100.00;99986.31;5018051;28;20063;-81
2022/09/26 02:01:03;;;;;;;6.17;4.97;;;;;;;8.65;100.00;99982.69;5015615;28;20072;-81
2022/09/26 02:03:35;;;;;;;5.55;3.53;;;;;;;8.55;100.00;99981.19;5000990;28;20052;-81
2022/09/26 02:06:15;;;;;;;5.40;4.00;;;;;;;8.51;100.00;99984.81;4999784;28;20570;-81
2022/09/26 02:08:47;;;;;;;7.13;4.33;;;;;;;8.48;100.00;99980.47;5017687;28;20097;-81
2022/09/26 02:11:16;;;;;;;7.60;4.33;;;;;;;8.42;100.00;99981.50;5012684;28;20037;-82
2022/09/26 02:14:10;;;;;;;4.83;4.10;;;;;;;8.39;100.00;99978.91;5030775;28;20490;-80
2022/09/26 02:16:46;;;;;;;6.20;4.32;;;;;;;8.38;100.00;99979.81;5030867;28;20083;-81
2022/09/26 02:19:25;;;;;;;6.67;3.70;;;;;;;8.36;100.00;99976.34;5033835;28;20048;-81
2022/09/26 02:21:52;;;;;;;5.00;3.90;;;;;;;8.33;100.00;99971.13;4999627;28;20044;-81
2022/09/26 02:24:18;;;;;;;5.47;4.00;;;;;;;8.31;100.00;99962.38;5017527;28;20045;-81
2022/09/26 02:26:45;;;;;;;4.73;3.83;;;;;;;8.31;100.00;99957.13;4999938;28;20044;-82
2022/09/26 02:29:12;;;;;;;5.50;4.00;;;;;;;8.37;100.00;99954.38;5017533;28;20037;-81
2022/09/26 02:31:50;;;;;;;5.57;4.23;;;;;;;8.27;100.00;99951.97;5015955;28;20171;-81
2022/09/26 02:34:17;;;;;;;6.00;4.00;;;;;;;8.29;100.00;99955.44;5017577;28;20075;-81
2022/09/26 02:36:45;;;;;;;9.50;4.33;;;;;;;8.25;100.00;99948.53;4999543;28;20490;-81
2022/09/26 02:39:12;;;;;;;5.20;3.80;;;;;;;8.14;100.00;99946.97;5017411;28;20054;-81
2022/09/26 02:41:54;;;;;;;6.00;3.73;;;;;;;8.08;100.00;99949.75;4999416;28;20045;-81
2022/09/26 02:44:41;;;;;;;5.83;3.73;;;;;;;7.98;100.00;99940.31;5033972;28;20041;-81
2022/09/26 02:47:26;;;;;;;6.23;3.97;;;;;;;7.94;100.00;99940.41;5015687;28;20047;-81
2022/09/26 02:50:07;;;;;;;5.47;3.67;;;;;;;7.82;100.00;99941.56;5016868;28;20044;-81
2022/09/26 02:52:50;;;;;;;7.27;4.67;;;;;;;7.84;100.00;99937.13;5015466;28;20059;-81
2022/09/26 02:55:26;;;;;;;5.90;4.27;;;;;;;7.75;100.00;99946.06;5013219;28;20490;-81
2022/09/26 02:58:15;;;;;;;5.00;3.57;;;;;;;7.75;100.00;99943.44;5029296;28;20042;-81
2022/09/26 03:01:21;;;;;;;6.00;3.17;;;;;;;7.68;100.00;99944.47;5008110;28;20064;-81
2022/09/26 03:03:51;;;;;;;4.03;3.10;;;;;;;7.61;100.00;99934.94;4981840;28;20142;-81
2022/09/26 03:06:23;;;;;;;5.37;3.33;;;;;;;7.66;100.00;99940.13;4992105;28;20041;-82
2022/09/26 03:08:50;;;;;;;5.50;4.03;;;;;;;7.67;100.00;99933.97;4977921;28;20049;-82
2022/09/26 03:11:20;;;;;;;7.53;3.93;;;;;;;7.47;100.00;99934.34;4992213;28;20125;-81
2022/09/26 03:13:49;;;;;;;4.97;3.13;;;;;;;7.45;100.00;99926.50;4993573;28;20518;-81
2022/09/26 03:16:16;;;;;;;6.77;3.77;;;;;;;7.50;100.00;99922.03;4976363;28;20410;-80
2022/09/26 03:19:25;;;;;;;7.57;4.00;;;;;;;7.43;100.00;99919.56;4993190;28;20137;-81
2022/09/26 03:21:53;;;;;;;5.80;2.97;;;;;;;7.34;100.00;99923.22;5008319;28;20541;-81
2022/09/26 03:24:19;;;;;;;5.13;3.77;;;;;;;7.31;100.00;99918.00;5012753;28;20095;-81
2022/09/26 03:26:46;;;;;;;6.83;4.20;;;;;;;7.29;100.00;99919.81;5027887;28;20099;-81
2022/09/26 03:29:13;;;;;;;5.83;3.67;;;;;;;7.28;100.00;99916.31;5032049;28;20041;-81
2022/09/26 03:31:40;;;;;;;5.17;3.60;;;;;;;7.27;100.00;99917.22;4999266;28;20558;-81
2022/09/26 03:34:07;;;;;;;6.00;4.03;;;;;;;7.27;100.00;99913.72;5000649;28;20041;-81
2022/09/26 03:36:33;;;;;;;6.67;3.97;;;;;;;7.27;100.00;99900.59;4999264;28;20091;-81
2022/09/26 03:39:00;;;;;;;7.33;3.80;;;;;;;7.36;100.00;99907.41;5016731;28;20103;-81
2022/09/26 03:41:27;;;;;;;5.33;3.77;;;;;;;7.31;100.00;99907.50;5015586;28;20029;-81
2022/09/26 03:43:55;;;;;;;7.33;4.17;;;;;;;7.34;100.00;99897.81;5016884;28;20053;-81
2022/09/26 03:46:23;;;;;;;6.50;4.40;;;;;;;7.38;100.00;99888.09;5015303;28;20053;-81
2022/09/26 03:48:49;;;;;;;6.63;4.10;;;;;;;7.42;100.00;99892.41;5000901;28;20045;-81
2022/09/26 03:51:16;;;;;;;6.97;4.17;;;;;;;7.48;100.00;99892.28;4998925;28;20033;-81
2022/09/26 03:53:46;;;;;;;6.67;4.57;;;;;;;7.50;100.00;99894.88;5008673;28;20041;-81
2022/09/26 03:56:14;;;;;;;6.77;4.33;;;;;;;7.53;100.00;99894.81;5018643;28;20459;-81
2022/09/26 03:58:41;;;;;;;8.70;4.50;;;;;;;7.50;100.00;99887.88;5038235;28;20048;-81
2022/09/26 04:01:11;;;;;;;8.90;5.07;;;;;;;7.50;100.00;99898.38;5021570;28;20047;-81
2022/09/26 04:03:39;;;;;;;7.87;4.70;;;;;;;7.55;100.00;99900.91;5039784;28;20052;-81
2022/09/26 04:06:08;;;;;;;6.73;4.70;;;;;;;7.59;100.00;99902.59;5021743;28;20743;-81
2022/09/26 04:08:39;;;;;;;8.47;4.67;;;;;;;7.59;100.00;99902.59;5039614;28;20463;-81
2022/09/26 04:11:08;;;;;;;7.90;4.90;;;;;;;7.61;100.00;99906.03;5037926;28;20033;-81
2022/09/26 04:13:35;;;;;;;6.80;4.57;;;;;;;7.68;100.00;99899.75;5039663;28;20098;-81
2022/09/26 04:16:18;;;;;;;8.10;5.17;;;;;;;7.75;100.00;99895.25;5024367;28;20071;-81
2022/09/26 04:18:45;;;;;;;8.47;5.53;;;;;;;7.77;100.00;99890.81;5038944;28;20390;-82
2022/09/26 04:21:13;;;;;;;7.97;5.50;;;;;;;7.79;100.00;99884.63;5054000;28;20041;-80
2022/09/26 04:23:40;;;;;;;8.83;5.33;;;;;;;7.84;100.00;99890.66;5023040;28;20394;-80
2022/09/26 04:26:09;;;;;;;11.10;7.27;;;;;;;7.99;100.00;99888.56;5037930;28;20390;-81
2022/09/26 04:28:37;;;;;;;11.67;6.77;;;;;;;8.02;100.00;99886.75;5055989;28;20044;-80
2022/09/26 04:31:05;;;;;;;9.73;5.90;;;;;;;7.99;100.00;99876.31;5037637;28;20044;-81
2022/09/26 04:33:32;;;;;;;12.27;7.53;;;;;;;8.04;100.00;99881.44;5022658;28;20101;-80
2022/09/26 04:36:00;;;;;;;11.20;7.50;;;;;;;8.06;100.00;99877.88;5037758;28;20056;-80
2022/09/26 04:38:31;;;;;;;12.97;7.60;;;;;;;8.10;100.00;99873.44;5039345;28;20179;-81
2022/09/26 04:41:10;;;;;;;10.17;6.80;;;;;;;8.12;100.00;99874.25;5053997;28;20555;-80
2022/09/26 04:43:37;;;;;;;11.03;7.33;;;;;;;8.12;100.00;99861.09;5055727;28;20041;-81
2022/09/26 04:46:08;;;;;;;10.47;6.63;;;;;;;8.16;100.00;99866.25;5037372;28;20565;-80
2022/09/26 04:48:35;;;;;;;11.03;7.83;;;;;;;8.19;100.00;99865.31;5022556;28;20094;-81
2022/09/26 04:51:06;;;;;;;11.60;7.30;;;;;;;8.29;100.00;99866.81;5037410;28;20386;-81
2022/09/26 04:53:33;;;;;;;14.53;7.97;;;;;;;8.27;100.00;99860.75;5038726;28;20036;-80
2022/09/26 04:56:00;;;;;;;11.50;7.53;;;;;;;8.24;100.00;99865.19;5037099;28;20421;-81
2022/09/26 04:58:28;;;;;;;11.10;7.13;;;;;;;8.27;100.00;99858.09;5038187;28;20127;-81
2022/09/26 05:00:55;;;;;;;13.67;7.93;;;;;;;8.41;100.00;99863.94;5036873;28;20044;-81
2022/09/26 05:03:22;;;;;;;15.00;8.20;;;;;;;8.42;100.00;99865.66;5055153;28;20127;-81
2022/09/26 05:05:49;;;;;;;17.97;8.57;;;;;;;8.42;100.00;99870.94;5037162;28;20056;-81
2022/09/26 05:08:16;;;;;;;12.70;7.30;;;;;;;8.39;100.00;99863.09;5055377;28;20064;-81
2022/09/26 05:10:43;;;;;;;11.33;6.97;;;;;;;8.41;100.00;99863.94;5020342;28;20045;-81
2022/09/26 05:13:09;;;;;;;9.93;6.23;;;;;;;8.40;100.00;99866.59;5038632;28;20044;-81
2022/09/26 05:15:38;;;;;;;11.23;7.10;;;;;;;8.42;100.00;99863.03;5036831;28;20048;-82
2022/09/26 05:18:06;;;;;;;11.00;7.97;;;;;;;8.53;100.00;99869.81;5038697;28;20398;-82
2022/09/26 05:20:34;;;;;;;11.53;7.30;;;;;;;8.48;100.00;99854.09;5022389;28;20052;-81
2022/09/26 05:23:01;;;;;;;11.57;6.87;;;;;;;8.47;100.00;99857.66;5018071;28;20041;-81
2022/09/26 05:28:15;;;;;;;11.43;7.00;;;;;;;8.44;100.00;99858.59;5024809;28;20395;-81
2022/09/26 05:30:42;;;;;;;12.70;7.43;;;;;;;8.54;100.00;99853.97;5024748;28;20460;-81
2022/09/26 05:33:11;;;;;;;15.80;8.90;;;;;;;8.56;100.00;99852.16;5022961;28;20066;-81
2022/09/26 05:35:39;;;;;;;11.27;7.97;;;;;;;8.62;100.00;99851.13;5029383;28;20053;-81
2022/09/26 05:38:06;;;;;;;13.27;8.13;;;;;;;8.68;100.00;99848.34;5021234;28;20044;-81
2022/09/26 05:43:17;;;;;;;13.37;8.50;;;;;;;8.79;100.00;99848.94;5021813;28;20067;-81
2022/09/26 05:45:48;;;;;;;12.53;7.70;;;;;;;8.77;100.00;99850.75;5015542;28;20053;-81
2022/09/26 05:48:16;;;;;;;13.63;7.87;;;;;;;8.79;100.00;99845.44;5035401;28;20497;-81
2022/09/26 05:50:44;;;;;;;13.73;8.57;;;;;;;8.88;100.00;99845.19;5016845;28;20156;-81
2022/09/26 05:53:11;;;;;;;12.00;8.47;;;;;;;8.87;100.00;99851.38;5042812;28;20041;-82
2022/09/26 05:55:37;;;;;;;13.00;8.40;;;;;;;9.01;100.00;99844.84;5015256;28;20067;-82
2022/09/26 05:58:08;;;;;;;14.00;8.57;;;;;;;8.97;100.00;99845.81;5050782;28;20071;-81
2022/09/26 06:00:37;;;;;;;11.10;7.50;;;;;;;8.99;100.00;99840.50;5032689;28;20079;-81
2022/09/26 06:03:04;;;;;;;11.20;7.50;;;;;;;8.99;100.00;99841.34;5091725;22;20135;-82
2022/09/26 06:05:32;;;;;;;13.20;7.80;;;;;;;8.93;100.00;99846.81;5053635;28;20119;-83
2022/09/26 06:08:00;;;;;;;11.63;8.10;;;;;;;8.98;100.00;99846.66;5054978;28;20079;-84
2022/09/26 06:10:27;;;;;;;9.77;6.83;;;;;;;8.99;100.00;99833.44;5053863;28;20040;-83
2022/09/26 06:12:54;;;;;;;12.00;8.13;;;;;;;9.00;100.00;99840.47;5034400;28;20051;-84
2022/09/26 06:15:21;;;;;;;10.80;6.60;;;;;;;9.01;100.00;99834.28;5033746;28;20390;-83
2022/09/26 06:17:56;;;;;;;7.93;6.03;;;;;;;9.07;100.00;99840.28;5048225;28;20641;-83
2022/09/26 06:20:24;;;;;;;10.63;6.95;;;;;;;9.09;100.00;99834.09;5018621;28;20135;-83
2022/09/26 06:22:51;;;;;;;9.50;6.43;;;;;;;9.07;100.00;99837.66;5029615;28;20402;-83
2022/09/26 06:25:18;;;;;;;8.67;6.43;;;;;;;9.11;100.00;99834.03;5022498;28;20036;-83
2022/09/26 06:27:44;;;;;;;9.15;5.85;;;;;;;9.13;100.00;99832.22;5014351;28;20044;-83
2022/09/26 06:30:11;;;;;;;8.05;5.57;;;;;;;9.10;100.00;99827.91;5021171;28;20429;-83
2022/09/26 06:32:38;;;;;;;8.63;5.63;;;;;;;9.13;100.00;99830.44;5039085;28;20040;-83
2022/09/26 06:35:05;;;;;;;10.50;5.97;;;;;;;9.17;100.00;99823.34;5040459;28;20047;-83
2022/09/26 06:37:32;;;;;;;7.38;5.40;;;;;;;9.07;100.00;99824.47;5024735;28;20162;-83
2022/09/26 06:39:59;;;;;;;9.57;5.60;;;;;;;9.10;100.00;99821.78;5040777;28;20040;-83
2022/09/26 06:42:26;;;;;;;7.95;4.95;;;;;;;9.09;100.00;99823.56;5039497;28;20044;-83
2022/09/26 06:44:52;;;;;;;8.87;5.37;;;;;;;9.14;100.00;99819.00;5041772;28;20455;-84
2022/09/26 06:47:19;;;;;;;8.60;5.72;;;;;;;9.24;100.00;99819.59;5019370;28;20048;-84
2022/09/26 06:49:47;;;;;;;8.80;5.53;;;;;;;9.21;100.00;99828.47;5038073;28;20121;-83
2022/09/26 06:52:14;;;;;;;7.75;5.35;;;;;;;9.29;100.00;99829.09;5035893;28;20067;-82
2022/09/26 06:54:41;;;;;;;6.78;5.10;;;;;;;9.31;100.00;99822.00;5020077;28;20044;-83
2022/09/26 06:57:08;;;;;;;7.13;5.00;;;;;;;9.48;100.00;99813.63;5014310;28;20040;-83
2022/09/26 06:59:40;;;;;;;7.78;5.13;;;;;;;9.49;100.00;99811.84;5055731;28;20370;-83
2022/09/26 07:02:07;;;;;;;7.05;5.68;;;;;;;9.67;100.00;99807.78;5035647;28;20056;-83
2022/09/26 07:04:34;;;;;;;7.63;4.80;;;;;;;9.95;100.00;99813.97;5019682;28;20449;-83
2022/09/26 07:07:01;;;;;;;7.63;4.47;;;;;;;10.13;100.00;99812.50;4999289;28;20476;-83
2022/09/26 07:09:28;;;;;;;5.15;4.00;;;;;;;10.13;100.00;99812.50;5029587;28;20037;-83
2022/09/26 07:11:54;;;;;;;7.05;4.80;;;;;;;10.45;100.00;99805.34;5000741;28;20382;-84
2022/09/26 07:14:41;;;;;;;5.80;4.40;;;;;;;10.68;100.00;99816.88;5021459;28;20051;-83
2022/09/26 07:17:13;;;;;;;7.18;4.32;;;;;;;10.91;100.00;99807.25;5004964;28;20467;-84
2022/09/26 07:19:40;;;;;;;6.85;4.30;;;;;;;11.15;100.00;99808.16;5015840;28;20036;-83
2022/09/26 07:22:08;;;;;;;4.85;4.05;;;;;;;11.14;100.00;99806.44;4999846;28;20118;-83
2022/09/26 07:24:34;;;;;;;6.60;3.75;;;;;;;11.26;100.00;99803.31;5017161;28;20114;-83
2022/09/26 07:27:01;;;;;;;6.57;3.97;;;;;;;11.33;100.00;99793.38;5015468;28;20482;-83
2022/09/26 07:29:28;;;;;;;8.38;4.25;;;;;;;11.36;100.00;99788.88;5017054;28;20105;-83
2022/09/26 07:31:55;;;;;;;10.95;4.88;;;;;;;11.52;100.00;99787.38;5015034;28;20090;-83
2022/09/26 07:34:23;;;;;;;6.10;3.58;;;;;;;11.63;100.00;99792.25;5025626;28;20065;-83
2022/09/26 07:36:50;;;;;;;6.72;3.85;;;;;;;11.74;100.00;99786.53;5012903;28;20060;-84
2022/09/26 07:39:17;;;;;;;6.80;3.45;;;;;;;11.76;100.00;99788.19;5007865;28;20060;-83
2022/09/26 07:41:44;;;;;;;5.85;3.53;;;;;;;11.88;100.00;99778.09;5012721;28;20057;-83
2022/09/26 07:44:12;;;;;;;5.63;3.60;;;;;;;11.99;100.00;99792.59;5029973;28;20038;-84
2022/09/26 07:52:29;;;;;;;9.70;4.38;;;;;;;12.08;100.00;99788.72;5016787;28;20041;-83
2022/09/26 07:54:56;;;;;;;5.15;3.42;;;;;;;12.19;100.00;99790.91;5000625;28;20559;-83
2022/09/26 07:57:23;;;;;;;5.78;3.63;;;;;;;12.35;100.00;99787.59;4999271;28;20405;-84
2022/09/26 07:59:50;;;;;;;8.90;3.67;;;;;;;12.45;100.00;99780.13;5017381;28;20056;-84
2022/09/26 08:02:21;;;;;;;7.10;3.80;;;;;;;12.59;100.00;99783.03;5008910;28;20048;-84
2022/09/26 08:04:48;;;;;;;7.13;4.38;;;;;;;12.66;100.00;99771.25;5014480;28;20036;-83
2022/09/26 08:07:15;;;;;;;7.55;4.05;;;;;;;12.71;100.00;99768.41;5015010;28;20037;-84
2022/09/26 08:09:41;;;;;;;5.78;3.90;;;;;;;12.88;100.00;99768.53;5017899;28;20063;-84
2022/09/26 08:12:08;;;;;;;4.85;3.25;;;;;;;13.01;100.00;99771.50;5035174;28;20044;-84
2022/09/26 08:14:36;;;;;;;5.57;3.40;;;;;;;12.95;100.00;99772.66;5038161;28;20047;-84
2022/09/26 08:17:03;;;;;;;7.78;3.17;;;;;;;13.06;100.00;99772.16;5052462;28;20474;-84
2022/09/26 08:19:29;;;;;;;4.30;2.88;;;;;;;13.06;100.00;99766.88;5039008;28;20463;-84
2022/09/26 08:21:57;;;;;;;5.15;3.17;;;;;;;13.09;100.00;99769.38;5030612;28;20044;-84
2022/09/26 08:24:24;;;;;;;5.68;2.90;;;;;;;13.11;100.00;99766.63;5023791;28;20040;-83
2022/09/26 08:26:53;;;;;;;4.72;3.13;;;;;;;13.08;100.00;99767.66;5054842;28;20041;-82
2022/09/26 08:29:22;;;;;;;5.38;3.30;;;;;;;13.11;100.00;99770.16;5020627;28;20045;-82
2022/09/26 08:31:50;;;;;;;6.60;2.72;;;;;;;13.15;100.00;99758.50;5038911;28;20048;-82
2022/09/26 08:34:17;;;;;;;5.68;2.55;;;;;;;13.10;100.00;99772.88;5047911;28;20060;-83
2022/09/26 08:36:53;;;;;;;3.72;2.65;;;;;;;13.26;100.00;99771.28;5035183;28;20044;-84
2022/09/26 08:39:20;;;;;;;7.22;2.92;;;;;;;13.32;100.00;99765.72;5042331;28;20049;-81
2022/09/26 08:42:27;;;;;;;4.32;2.65;;;;;;;13.36;100.00;99763.75;5053543;28;20044;-82
2022/09/26 08:46:23;;;;;;;5.85;2.80;;;;;;;13.43;100.00;99767.84;5060690;28;20666;-82
2022/09/26 08:47:58;;;;;;;3.95;2.38;;;;;;;13.56;100.00;99760.19;5051419;28;20041;-81
2022/09/26 08:50:38;;;;;;;6.33;2.73;;;;;;;13.64;100.00;99763.34;5057134;28;20033;-82
2022/09/26 08:53:09;;;;;;;4.43;2.40;;;;;;;13.74;100.00;99752.22;5025663;28;20041;-82
2022/09/26 08:55:41;;;;;;;4.00;2.40;;;;;;;14.00;96.97;99750.09;5025048;28;20055;-82
2022/09/26 08:58:17;;;;;;;3.50;2.25;;;;;;;14.29;98.37;99745.97;5036335;28;20555;-82
2022/09/26 09:00:50;;;;;;;3.47;2.67;;;;;;;14.51;92.50;99740.47;5057240;28;20404;-82
2022/09/26 09:03:22;;;;;;;3.92;2.40;;;;;;;14.92;88.67;99733.88;5025288;28;20061;-81
2022/09/26 09:05:53;;;;;;;5.07;2.20;;;;;;;15.07;83.82;99740.19;5042167;28;20097;-81
2022/09/26 09:08:22;;;;;;;3.95;2.35;;;;;;;15.23;87.03;99734.03;5059905;28;20093;-81
2022/09/26 09:11:11;;;;;;;3.47;1.98;;;;;;;15.25;85.99;99726.81;5061336;28;20044;-81
2022/09/26 09:13:51;;;;;;;4.20;1.80;;;;;;;15.26;84.65;99728.53;5033345;28;20045;-81
2022/09/26 09:16:36;;;;;;;3.00;1.80;;;;;;;15.37;80.19;99734.13;5040079;28;20045;-82
2022/09/26 09:19:21;;;;;;;3.28;1.60;;;;;;;15.53;77.71;99721.69;5060289;28;20060;-82
2022/09/26 09:21:57;;;;;;;2.90;1.80;;;;;;;15.67;78.96;99721.81;5069622;28;20044;-81
2022/09/26 09:24:43;;;;;;;2.17;1.70;;;;;;;15.85;78.60;99719.06;5049600;28;20473;-83
2022/09/26 09:27:42;;;;;;;6.10;1.90;;;;;;;15.99;76.63;99705.81;5028211;28;20557;-83
2022/09/26 09:30:40;;;;;;;5.55;1.45;;;;;;;15.88;74.97;99713.53;5053776;28;20126;-82
2022/09/26 09:33:16;;;;;;;3.13;1.83;;;;;;;15.92;78.68;99712.44;5036781;28;20060;-82
2022/09/26 09:35:47;;;;;;;2.10;1.52;;;;;;;16.23;75.45;99709.72;5012237;28;20051;-83
2022/09/26 09:38:16;;;;;;;2.88;1.55;;;;;;;16.30;70.49;99704.84;5036275;28;20048;-82
2022/09/26 09:40:50;;;;;;;3.53;1.40;;;;;;;16.17;71.60;99711.88;5036891;28;20057;-82
2022/09/26 09:43:35;;;;;;;2.37;1.33;;;;;;;15.98;73.06;99707.63;5068593;28;20033;-82
2022/09/26 09:46:04;;;;;;;4.50;1.92;;;;;;;15.88;70.92;99708.22;5026051;28;20082;-83
2022/09/26 09:48:32;;;;;;;3.08;1.73;;;;;;;15.82;70.56;99705.91;5059775;28;20386;-82
2022/09/26 09:51:14;;;;;;;3.17;1.85;;;;;;;15.80;71.65;99698.00;5035897;28;20055;-82
2022/09/26 09:54:22;;;;;;;2.75;1.85;;;;;;;15.94;71.84;99694.53;5074374;28;20047;-83
2022/09/26 09:57:09;;;;;;;2.40;1.30;;;;;;;16.39;71.87;99682.13;5041223;28;20048;-81
2022/09/26 09:59:55;;;;;;;2.97;1.38;;;;;;;16.66;68.55;99677.81;5043202;28;20044;-81
2022/09/26 10:02:36;;;;;;;2.58;1.75;;;;;;;16.98;68.57;99683.81;5061857;28;20036;-83
2022/09/26 10:05:22;;;;;;;2.92;1.92;;;;;;;17.25;64.71;99677.72;5016059;28;20037;-83
2022/09/26 10:07:56;;;;;;;3.92;1.30;;;;;;;17.26;65.11;99677.63;5006561;28;20041;-83
2022/09/26 10:11:00;;;;;;;3.42;1.25;;;;;;;17.60;66.49;99668.31;5024997;28;20040;-83
2022/09/26 10:13:31;;;;;;;1.95;1.40;;;;;;;17.35;62.71;99679.72;5009040;28;20131;-82
2022/09/26 10:16:00;;;;;;;2.70;1.10;;;;;;;17.50;64.72;99667.19;5011152;28;20102;-83
2022/09/26 10:18:27;;;;;;;3.33;1.35;;;;;;;17.52;61.35;99672.44;5034965;28;20045;-83
2022/09/26 10:20:59;;;;;;;4.30;1.88;;;;;;;17.45;61.12;99659.47;5024694;28;20045;-82
2022/09/26 10:23:30;;;;;;;4.07;1.30;;;;;;;17.36;60.27;99669.88;5024293;28;20084;-82
2022/09/26 10:26:02;;;;;;;3.65;1.70;;;;;;;17.29;60.49;99658.72;5034383;28;20095;-83
2022/09/26 10:28:30;;;;;;;1.40;1.15;;;;;;;17.43;60.42;99648.03;5003539;28;20041;-82
2022/09/26 10:31:03;;;;;;;2.65;0.90;;;;;;;17.57;59.97;99651.59;5016580;28;20041;-82
2022/09/26 10:33:34;;;;;;;3.05;1.00;;;;;;;17.61;59.32;99647.78;5019355;28;20033;-81
2022/09/26 10:36:18;;;;;;;3.30;1.20;;;;;;;17.77;58.00;99658.34;5001913;28;20632;-82
2022/09/26 10:41:43;;;;;;;3.95;1.65;;;;;;;17.22;58.82;99652.06;5047306;28;20106;-82
2022/09/26 10:44:22;;;;;;;3.03;0.80;;;;;;;17.21;57.57;99658.38;5021165;28;20040;-82
2022/09/26 10:46:51;;;;;;;1.40;1.10;;;;;;;16.95;58.73;99653.81;5002721;28;20041;-81
2022/09/26 10:49:22;;;;;;;2.30;1.00;;;;;;;16.95;59.04;99646.66;5012211;28;20098;-82
2022/09/26 10:51:56;;;;;;;2.70;0.98;;;;;;;17.22;59.10;99646.72;5015672;28;20053;-82
2022/09/26 10:54:24;;;;;;;;;;;;;;;17.19;57.21;99643.41;5004077;28;20091;-82
2022/09/26 10:56:58;;;;;;;3.33;1.10;;;;;;;17.08;58.87;99638.78;5033218;28;19929;-82
2022/09/26 10:59:26;;;;;;;;;;;;;;;17.03;58.41;99638.19;4995501;28;20073;-83
2022/09/26 11:01:57;;;;;;;1.77;1.15;;;;;;;16.77;58.50;99643.34;4997795;28;19920;-84
2022/09/26 11:07:23;;;;;;;3.25;1.20;;;;;;;16.70;64.03;99634.00;5035999;28;20178;-82
2022/09/26 11:09:51;;;;;;;1.45;1.08;;;;;;;16.65;62.24;99635.19;5027013;28;20057;-83
2022/09/26 11:12:27;;;;;;;1.75;0.90;;;;;;;16.40;62.52;99627.88;5013196;28;20048;-83
2022/09/26 11:14:57;;;;;;;1.48;0.90;;;;;;;16.26;63.81;99634.03;5035792;28;20049;-82
2022/09/26 11:17:50;;;;;;;3.10;1.30;;;;;;;16.38;64.51;99624.44;5019147;28;20040;-83
2022/09/26 11:20:22;;;;;;;2.60;0.90;;;;;;;16.69;63.20;99626.97;5020959;28;20103;-81
2022/09/26 11:22:55;;;;;;;2.00;1.23;;;;;;;16.85;62.07;99633.06;5049372;28;20621;-84
2022/09/26 11:25:30;;;;;;;1.83;1.00;;;;;;;17.11;62.34;99617.22;5046117;28;20630;-83
2022/09/26 11:28:05;;;;;;;2.38;1.20;;;;;;;17.39;59.46;99611.78;5036393;28;20114;-83
2022/09/26 11:30:34;;;;;;;3.58;1.27;;;;;;;17.39;58.94;99613.59;5026825;28;20059;-84
2022/09/26 11:33:04;;;;;;;2.67;0.80;;;;;;;17.46;56.81;99609.59;5019332;28;20067;-84
2022/09/26 11:35:44;;;;;;;1.55;0.85;;;;;;;17.52;56.43;99597.66;5019101;28;20618;-82
2022/09/26 11:38:39;;;;;;;2.05;1.25;;;;;;;17.69;57.89;99597.38;5052889;28;20040;-80
2022/09/26 11:41:37;;;;;;;1.52;1.30;;;;;;;17.80;56.59;99591.34;5067276;28;20292;-81
2022/09/26 11:44:33;;;;;;;2.15;1.00;;;;;;;17.78;58.28;99594.13;5045681;28;20052;-83
2022/09/26 11:47:37;;;;;;;2.15;1.10;;;;;;;17.91;57.24;99581.66;5050712;28;20040;-82
2022/09/26 11:50:34;;;;;;;1.23;1.08;;;;;;;17.94;57.93;99586.78;5054322;28;20049;-82
2022/09/26 11:53:12;;;;;;;2.65;1.10;;;;;;;17.77;57.79;99567.53;5054749;28;20025;-82
2022/09/26 11:56:14;;;;;;;2.20;1.15;;;;;;;17.69;57.55;99584.03;5012173;28;20041;-82
2022/09/26 11:59:22;;;;;;;1.73;0.93;;;;;;;17.47;57.95;99570.38;5037247;28;20048;-83
2022/09/26 12:02:17;;;;;;;1.25;0.98;;;;;;;17.29;60.65;99573.31;5052786;28;20044;-82
2022/09/26 12:05:13;;;;;;;1.90;1.20;;;;;;;17.04;58.65;99563.38;5055647;28;20041;-82
2022/09/26 12:07:55;;;;;;;1.80;1.20;;;;;;;16.91;62.45;99566.94;5121874;22;20024;-85
2022/09/26 12:10:36;;;;;;;1.73;1.05;;;;;;;17.05;59.06;99562.41;5070745;28;20047;-82
2022/09/26 12:13:48;;;;;;;3.53;1.17;;;;;;;17.26;59.80;99562.84;5058630;28;20590;-84